sensor_id;sensor_type;location;lat;lon;timestamp;pressure;altitude;pressure_sealevel;temperature;humidity
73101;BME280;61288;53.446;-2.266;2023-04-28T00:01:41;100603.56;;;6.86;96.42
73101;BME280;61288;53.446;-2.266;2023-04-28T00:04:07;100602.84;;;6.81;96.73
73101;BME280;61288;53.446;-2.266;2023-04-28T00:06:32;100595.22;;;6.76;97.03
73101;BME280;61288;53.446;-2.266;2023-04-28T00:08:58;100594.44;;;6.73;97.46
73101;BME280;61288;53.446;-2.266;2023-04-28T00:11:24;100597.00;;;6.74;97.47
73101;BME280;61288;53.446;-2.266;2023-04-28T00:13:50;100597.03;;;6.73;98.37
73101;BME280;61288;53.446;-2.266;2023-04-28T00:16:16;100585.94;;;6.71;98.04
73101;BME280;61288;53.446;-2.266;2023-04-28T00:18:41;100585.91;;;6.72;97.64
73101;BME280;61288;53.446;-2.266;2023-04-28T00:21:07;100585.03;;;6.72;97.40
73101;BME280;61288;53.446;-2.266;2023-04-28T00:23:32;100579.88;;;6.72;96.99
73101;BME280;61288;53.446;-2.266;2023-04-28T00:25:58;100579.88;;;6.73;96.48
73101;BME280;61288;53.446;-2.266;2023-04-28T00:28:24;100571.28;;;6.73;96.26
73101;BME280;61288;53.446;-2.266;2023-04-28T00:30:49;100564.41;;;6.73;96.47
73101;BME280;61288;53.446;-2.266;2023-04-28T00:33:15;100565.22;;;6.75;96.37
73101;BME280;61288;53.446;-2.266;2023-04-28T00:35:40;100562.63;;;6.75;95.72
73101;BME280;61288;53.446;-2.266;2023-04-28T00:38:06;100560.88;;;6.76;95.21
73101;BME280;61288;53.446;-2.266;2023-04-28T00:40:36;100556.53;;;6.78;95.36
73101;BME280;61288;53.446;-2.266;2023-04-28T00:43:03;100558.22;;;6.79;95.44
73101;BME280;61288;53.446;-2.266;2023-04-28T00:45:29;100553.91;;;6.81;95.23
73101;BME280;61288;53.446;-2.266;2023-04-28T00:47:55;100564.13;;;6.84;95.05
73101;BME280;61288;53.446;-2.266;2023-04-28T00:50:23;100563.19;;;6.87;95.06
73101;BME280;61288;53.446;-2.266;2023-04-28T00:52:50;100561.50;;;6.86;94.66
73101;BME280;61288;53.446;-2.266;2023-04-28T00:55:17;100552.06;;;6.86;94.52
73101;BME280;61288;53.446;-2.266;2023-04-28T00:57:45;100545.13;;;6.88;94.69
73101;BME280;61288;53.446;-2.266;2023-04-28T01:00:11;100551.91;;;6.91;94.67
73101;BME280;61288;53.446;-2.266;2023-04-28T01:02:37;100543.34;;;6.90;94.29
73101;BME280;61288;53.446;-2.266;2023-04-28T01:05:03;100539.03;;;6.91;94.27
73101;BME280;61288;53.446;-2.266;2023-04-28T01:07:29;100545.13;;;6.88;94.13
73101;BME280;61288;53.446;-2.266;2023-04-28T01:09:55;100545.13;;;6.88;94.31
73101;BME280;61288;53.446;-2.266;2023-04-28T01:12:21;100540.78;;;6.90;94.28
73101;BME280;61288;53.446;-2.266;2023-04-28T01:14:47;100535.63;;;6.90;94.20
73101;BME280;61288;53.446;-2.266;2023-04-28T01:17:13;100533.03;;;6.90;94.11
73101;BME280;61288;53.446;-2.266;2023-04-28T01:19:39;100538.13;;;6.92;94.11
73101;BME280;61288;53.446;-2.266;2023-04-28T01:22:05;100536.41;;;6.92;94.34
73101;BME280;61288;53.446;-2.266;2023-04-28T01:24:31;100540.69;;;6.93;94.43
73101;BME280;61288;53.446;-2.266;2023-04-28T01:26:57;100533.78;;;6.94;94.60
73101;BME280;61288;53.446;-2.266;2023-04-28T01:29:23;100532.97;;;6.93;94.82
73101;BME280;61288;53.446;-2.266;2023-04-28T01:31:48;100530.41;;;6.92;94.95
73101;BME280;61288;53.446;-2.266;2023-04-28T01:34:14;100536.34;;;6.94;94.88
73101;BME280;61288;53.446;-2.266;2023-04-28T01:36:39;100539.00;;;6.92;94.90
73101;BME280;61288;53.446;-2.266;2023-04-28T01:39:05;100531.28;;;6.92;94.92
73101;BME280;61288;53.446;-2.266;2023-04-28T01:41:30;100528.69;;;6.92;95.30
73101;BME280;61288;53.446;-2.266;2023-04-28T01:43:58;100533.84;;;6.92;95.21
73101;BME280;61288;53.446;-2.266;2023-04-28T01:46:24;100534.66;;;6.93;95.33
73101;BME280;61288;53.446;-2.266;2023-04-28T01:48:50;100534.66;;;6.94;95.29
73101;BME280;61288;53.446;-2.266;2023-04-28T01:51:15;100536.34;;;6.94;95.44
73101;BME280;61288;53.446;-2.266;2023-04-28T01:53:41;100530.31;;;6.95;96.12
73101;BME280;61288;53.446;-2.266;2023-04-28T01:56:08;100538.94;;;6.94;96.38
73101;BME280;61288;53.446;-2.266;2023-04-28T01:58:34;100530.38;;;6.93;97.06
73101;BME280;61288;53.446;-2.266;2023-04-28T02:01:00;100532.09;;;6.93;97.73
73101;BME280;61288;53.446;-2.266;2023-04-28T02:03:26;100527.84;;;6.92;97.65
73101;BME280;61288;53.446;-2.266;2023-04-28T02:05:53;100523.53;;;6.92;97.34
73101;BME280;61288;53.446;-2.266;2023-04-28T02:08:18;100538.13;;;6.92;97.14
73101;BME280;61288;53.446;-2.266;2023-04-28T02:10:44;100533.78;;;6.94;97.32
73101;BME280;61288;53.446;-2.266;2023-04-28T02:13:10;100526.91;;;6.94;96.86
73101;BME280;61288;53.446;-2.266;2023-04-28T02:15:42;100526.03;;;6.96;97.08
73101;BME280;61288;53.446;-2.266;2023-04-28T02:18:09;100522.53;;;6.98;96.37
73101;BME280;61288;53.446;-2.266;2023-04-28T02:20:34;100525.09;;;6.98;96.66
73101;BME280;61288;53.446;-2.266;2023-04-28T02:23:00;100518.22;;;6.99;96.54
73101;BME280;61288;53.446;-2.266;2023-04-28T02:25:25;100521.59;;;7.01;96.26
73101;BME280;61288;53.446;-2.266;2023-04-28T02:27:51;100525.84;;;7.02;96.16
73101;BME280;61288;53.446;-2.266;2023-04-28T02:30:17;100522.38;;;7.03;95.85
73101;BME280;61288;53.446;-2.266;2023-04-28T02:32:42;100528.34;;;7.05;95.77
73101;BME280;61288;53.446;-2.266;2023-04-28T02:35:08;100522.28;;;7.06;95.51
73101;BME280;61288;53.446;-2.266;2023-04-28T02:37:34;100524.03;;;7.05;95.66
73101;BME280;61288;53.446;-2.266;2023-04-28T02:39:59;100523.16;;;7.06;95.88
73101;BME280;61288;53.446;-2.266;2023-04-28T02:42:25;100518.81;;;7.07;96.04
73101;BME280;61288;53.446;-2.266;2023-04-28T02:44:50;100518.72;;;7.10;95.64
73101;BME280;61288;53.446;-2.266;2023-04-28T02:47:16;100522.19;;;7.09;95.43
73101;BME280;61288;53.446;-2.266;2023-04-28T02:49:41;100517.84;;;7.11;95.57
73101;BME280;61288;53.446;-2.266;2023-04-28T02:52:07;100520.41;;;7.11;95.97
73101;BME280;61288;53.446;-2.266;2023-04-28T02:54:33;100528.13;;;7.13;95.98
73101;BME280;61288;53.446;-2.266;2023-04-28T02:57:00;100527.25;;;7.12;95.79
73101;BME280;61288;53.446;-2.266;2023-04-28T02:59:27;100520.38;;;7.13;95.63
73101;BME280;61288;53.446;-2.266;2023-04-28T03:01:53;100528.13;;;7.13;96.01
73101;BME280;61288;53.446;-2.266;2023-04-28T03:04:19;100518.69;;;7.13;96.49
73101;BME280;61288;53.446;-2.266;2023-04-28T03:06:45;100510.19;;;7.10;97.44
73101;BME280;61288;53.446;-2.266;2023-04-28T03:09:11;100506.75;;;7.09;97.93
73101;BME280;61288;53.446;-2.266;2023-04-28T03:11:37;100511.06;;;7.08;97.86
73101;BME280;61288;53.446;-2.266;2023-04-28T03:14:02;100508.53;;;7.07;98.71
73101;BME280;61288;53.446;-2.266;2023-04-28T03:16:28;100506.03;;;7.04;98.38
73101;BME280;61288;53.446;-2.266;2023-04-28T03:18:53;100502.63;;;7.03;98.61
73101;BME280;61288;53.446;-2.266;2023-04-28T03:21:19;100500.97;;;7.01;99.01
73101;BME280;61288;53.446;-2.266;2023-04-28T03:23:44;100501.84;;;7.01;99.33
73101;BME280;61288;53.446;-2.266;2023-04-28T03:26:10;100495.88;;;6.99;99.04
73101;BME280;61288;53.446;-2.266;2023-04-28T03:28:35;100504.44;;;7.00;98.99
73101;BME280;61288;53.446;-2.266;2023-04-28T03:31:02;100506.19;;;6.99;99.03
73101;BME280;61288;53.446;-2.266;2023-04-28T03:33:28;100510.47;;;6.99;98.63
73101;BME280;61288;53.446;-2.266;2023-04-28T03:35:55;100502.75;;;6.99;98.71
73101;BME280;61288;53.446;-2.266;2023-04-28T03:38:20;100501.84;;;7.01;98.67
73101;BME280;61288;53.446;-2.266;2023-04-28T03:40:46;100506.09;;;7.02;98.44
73101;BME280;61288;53.446;-2.266;2023-04-28T03:43:12;100501.78;;;7.03;98.55
73101;BME280;61288;53.446;-2.266;2023-04-28T03:45:39;100506.09;;;7.02;97.99
73101;BME280;61288;53.446;-2.266;2023-04-28T03:48:05;100500.84;;;7.05;98.02
73101;BME280;61288;53.446;-2.266;2023-04-28T03:50:31;100506.81;;;7.07;97.86
73101;BME280;61288;53.446;-2.266;2023-04-28T03:52:56;100498.22;;;7.07;97.72
73101;BME280;61288;53.446;-2.266;2023-04-28T03:55:22;100502.44;;;7.10;97.54
73101;BME280;61288;53.446;-2.266;2023-04-28T03:57:48;100496.34;;;7.12;97.22
73101;BME280;61288;53.446;-2.266;2023-04-28T04:00:13;100501.50;;;7.12;97.38
73101;BME280;61288;53.446;-2.266;2023-04-28T04:02:39;100500.63;;;7.13;97.08
73101;BME280;61288;53.446;-2.266;2023-04-28T04:05:05;100500.56;;;7.15;96.92
73101;BME280;61288;53.446;-2.266;2023-04-28T04:07:30;100494.59;;;7.14;96.75
73101;BME280;61288;53.446;-2.266;2023-04-28T04:09:56;100495.31;;;7.18;96.70
73101;BME280;61288;53.446;-2.266;2023-04-28T04:12:21;100498.78;;;7.17;96.71
73101;BME280;61288;53.446;-2.266;2023-04-28T04:14:47;100503.03;;;7.19;96.98
73101;BME280;61288;53.446;-2.266;2023-04-28T04:17:12;100502.16;;;7.19;96.46
73101;BME280;61288;53.446;-2.266;2023-04-28T04:19:38;100508.19;;;7.19;96.51
73101;BME280;61288;53.446;-2.266;2023-04-28T04:22:03;100504.72;;;7.20;96.45
73101;BME280;61288;53.446;-2.266;2023-04-28T04:24:29;100511.56;;;7.21;95.96
73101;BME280;61288;53.446;-2.266;2023-04-28T04:26:55;100500.38;;;7.21;96.07
73101;BME280;61288;53.446;-2.266;2023-04-28T04:29:20;100510.59;;;7.24;95.60
73101;BME280;61288;53.446;-2.266;2023-04-28T04:31:46;100520.03;;;7.25;95.65
73101;BME280;61288;53.446;-2.266;2023-04-28T04:34:11;100524.28;;;7.26;95.60
73101;BME280;61288;53.446;-2.266;2023-04-28T04:36:38;100523.47;;;7.26;96.09
73101;BME280;61288;53.446;-2.266;2023-04-28T04:39:03;100525.16;;;7.27;95.91
73101;BME280;61288;53.446;-2.266;2023-04-28T04:41:29;100525.16;;;7.27;95.76
73101;BME280;61288;53.446;-2.266;2023-04-28T04:43:54;100524.22;;;7.29;95.71
73101;BME280;61288;53.446;-2.266;2023-04-28T04:46:20;100525.06;;;7.30;95.78
73101;BME280;61288;53.446;-2.266;2023-04-28T04:48:46;100522.44;;;7.31;96.08
73101;BME280;61288;53.446;-2.266;2023-04-28T04:51:11;100521.56;;;7.32;95.93
73101;BME280;61288;53.446;-2.266;2023-04-28T04:53:37;100528.31;;;7.35;96.55
73101;BME280;61288;53.446;-2.266;2023-04-28T04:56:02;100536.91;;;7.35;96.57
73101;BME280;61288;53.446;-2.266;2023-04-28T04:58:29;100527.50;;;7.34;96.14
73101;BME280;61288;53.446;-2.266;2023-04-28T05:00:54;100537.81;;;7.34;96.31
73101;BME280;61288;53.446;-2.266;2023-04-28T05:03:20;100547.25;;;7.34;96.68
73101;BME280;61288;53.446;-2.266;2023-04-28T05:05:46;100552.41;;;7.34;96.15
73101;BME280;61288;53.446;-2.266;2023-04-28T05:08:12;100550.72;;;7.33;96.90
73101;BME280;61288;53.446;-2.266;2023-04-28T05:10:38;100557.56;;;7.34;96.44
73101;BME280;61288;53.446;-2.266;2023-04-28T05:13:03;100560.13;;;7.35;96.88
73101;BME280;61288;53.446;-2.266;2023-04-28T05:15:29;100563.53;;;7.36;96.55
73101;BME280;61288;53.446;-2.266;2023-04-28T05:17:55;100560.16;;;7.34;96.48
73101;BME280;61288;53.446;-2.266;2023-04-28T05:20:22;100566.16;;;7.34;96.67
73101;BME280;61288;53.446;-2.266;2023-04-28T05:22:47;100566.16;;;7.34;96.46
73101;BME280;61288;53.446;-2.266;2023-04-28T05:25:13;100563.53;;;7.36;97.01
73101;BME280;61288;53.446;-2.266;2023-04-28T05:27:38;100569.56;;;7.35;96.93
73101;BME280;61288;53.446;-2.266;2023-04-28T05:30:09;100573.94;;;7.33;97.10
73101;BME280;61288;53.446;-2.266;2023-04-28T05:32:36;100582.53;;;7.33;97.16
73101;BME280;61288;53.446;-2.266;2023-04-28T05:35:03;100585.09;;;7.33;97.45
73101;BME280;61288;53.446;-2.266;2023-04-28T05:37:28;100589.41;;;7.33;97.22
73101;BME280;61288;53.446;-2.266;2023-04-28T05:39:54;100588.47;;;7.35;97.34
73101;BME280;61288;53.446;-2.266;2023-04-28T05:42:20;100594.53;;;7.34;97.42
73101;BME280;61288;53.446;-2.266;2023-04-28T05:44:45;100594.47;;;7.36;98.11
73101;BME280;61288;53.446;-2.266;2023-04-28T05:47:11;100595.31;;;7.36;97.93
73101;BME280;61288;53.446;-2.266;2023-04-28T05:49:37;100597.00;;;7.37;98.08
73101;BME280;61288;53.446;-2.266;2023-04-28T05:52:02;100599.59;;;7.37;98.11
73101;BME280;61288;53.446;-2.266;2023-04-28T05:54:28;100598.72;;;7.37;98.22
73101;BME280;61288;53.446;-2.266;2023-04-28T05:56:54;100605.66;;;7.35;98.69
73101;BME280;61288;53.446;-2.266;2023-04-28T05:59:20;100598.81;;;7.34;98.97
73101;BME280;61288;53.446;-2.266;2023-04-28T06:01:45;100603.13;;;7.33;99.81
73101;BME280;61288;53.446;-2.266;2023-04-28T06:04:11;100597.94;;;7.35;99.60
73101;BME280;61288;53.446;-2.266;2023-04-28T06:06:36;100597.84;;;7.38;99.58
73101;BME280;61288;53.446;-2.266;2023-04-28T06:09:02;100606.44;;;7.39;100.00
73101;BME280;61288;53.446;-2.266;2023-04-28T06:11:30;100605.53;;;7.40;99.43
73101;BME280;61288;53.446;-2.266;2023-04-28T06:13:55;100597.75;;;7.41;99.82
73101;BME280;61288;53.446;-2.266;2023-04-28T06:16:21;100593.47;;;7.40;100.00
73101;BME280;61288;53.446;-2.266;2023-04-28T06:18:47;100599.50;;;7.41;99.95
73101;BME280;61288;53.446;-2.266;2023-04-28T06:21:13;100602.06;;;7.41;99.80
73101;BME280;61288;53.446;-2.266;2023-04-28T06:23:39;100602.91;;;7.41;100.00
73101;BME280;61288;53.446;-2.266;2023-04-28T06:26:07;100608.91;;;7.42;99.86
73101;BME280;61288;53.446;-2.266;2023-04-28T06:28:32;100614.75;;;7.48;100.00
73101;BME280;61288;53.446;-2.266;2023-04-28T06:30:58;100617.16;;;7.53;99.83
73101;BME280;61288;53.446;-2.266;2023-04-28T06:33:24;100614.78;;;7.47;100.00
73101;BME280;61288;53.446;-2.266;2023-04-28T06:35:49;100620.69;;;7.50;99.81
73101;BME280;61288;53.446;-2.266;2023-04-28T06:38:15;100628.38;;;7.52;99.57
73101;BME280;61288;53.446;-2.266;2023-04-28T06:40:40;100635.13;;;7.56;99.16
73101;BME280;61288;53.446;-2.266;2023-04-28T06:43:06;100631.72;;;7.56;99.44
73101;BME280;61288;53.446;-2.266;2023-04-28T06:45:32;100643.66;;;7.58;99.09
73101;BME280;61288;53.446;-2.266;2023-04-28T06:47:57;100641.94;;;7.59;98.63
73101;BME280;61288;53.446;-2.266;2023-04-28T06:50:23;100644.41;;;7.63;99.30
73101;BME280;61288;53.446;-2.266;2023-04-28T06:52:48;100639.09;;;7.68;99.10
73101;BME280;61288;53.446;-2.266;2023-04-28T06:55:15;100658.81;;;7.69;98.83
73101;BME280;61288;53.446;-2.266;2023-04-28T06:57:42;100653.63;;;7.71;98.85
73101;BME280;61288;53.446;-2.266;2023-04-28T07:00:09;100651.94;;;7.70;98.79
73101;BME280;61288;53.446;-2.266;2023-04-28T07:02:35;100651.78;;;7.74;98.06
73101;BME280;61288;53.446;-2.266;2023-04-28T07:05:01;100655.13;;;7.78;97.80
73101;BME280;61288;53.446;-2.266;2023-04-28T07:07:28;100656.03;;;7.77;97.81
73101;BME280;61288;53.446;-2.266;2023-04-28T07:09:53;100658.50;;;7.82;98.26
73101;BME280;61288;53.446;-2.266;2023-04-28T07:12:20;100660.97;;;7.85;97.66
73101;BME280;61288;53.446;-2.266;2023-04-28T07:14:46;100659.91;;;7.90;97.29
73101;BME280;61288;53.446;-2.266;2023-04-28T07:17:11;100660.72;;;7.92;97.01
73101;BME280;61288;53.446;-2.266;2023-04-28T07:19:37;100665.81;;;7.95;97.03
73101;BME280;61288;53.446;-2.266;2023-04-28T07:22:02;100670.03;;;7.98;97.21
73101;BME280;61288;53.446;-2.266;2023-04-28T07:24:28;100675.97;;;8.00;97.36
73101;BME280;61288;53.446;-2.266;2023-04-28T07:26:53;100682.72;;;8.04;96.72
73101;BME280;61288;53.446;-2.266;2023-04-28T07:29:18;100679.13;;;8.10;96.54
73101;BME280;61288;53.446;-2.266;2023-04-28T07:31:44;100684.09;;;8.16;97.10
73101;BME280;61288;53.446;-2.266;2023-04-28T07:34:10;100691.75;;;8.19;95.88
73101;BME280;61288;53.446;-2.266;2023-04-28T07:36:36;100695.09;;;8.23;95.97
73101;BME280;61288;53.446;-2.266;2023-04-28T07:39:01;100703.63;;;8.25;96.34
73101;BME280;61288;53.446;-2.266;2023-04-28T07:41:27;100702.66;;;8.28;96.66
73101;BME280;61288;53.446;-2.266;2023-04-28T07:43:53;100712.94;;;8.31;96.59
73101;BME280;61288;53.446;-2.266;2023-04-28T07:46:19;100712.94;;;8.31;96.19
73101;BME280;61288;53.446;-2.266;2023-04-28T07:48:44;100717.19;;;8.32;96.84
73101;BME280;61288;53.446;-2.266;2023-04-28T07:51:10;100721.38;;;8.36;97.09
73101;BME280;61288;53.446;-2.266;2023-04-28T07:53:35;100722.16;;;8.38;95.73
73101;BME280;61288;53.446;-2.266;2023-04-28T07:56:01;100730.63;;;8.43;96.20
73101;BME280;61288;53.446;-2.266;2023-04-28T07:58:26;100731.38;;;8.47;95.43
73101;BME280;61288;53.446;-2.266;2023-04-28T08:00:52;100737.34;;;8.49;95.42
73101;BME280;61288;53.446;-2.266;2023-04-28T08:03:18;100741.47;;;8.55;95.88
73101;BME280;61288;53.446;-2.266;2023-04-28T08:05:43;100754.19;;;8.61;96.43
73101;BME280;61288;53.446;-2.266;2023-04-28T08:08:09;100752.38;;;8.64;95.93
73101;BME280;61288;53.446;-2.266;2023-04-28T08:10:35;100750.38;;;8.73;95.48
73101;BME280;61288;53.446;-2.266;2023-04-28T08:13:02;100760.47;;;8.80;94.54
73101;BME280;61288;53.446;-2.266;2023-04-28T08:15:27;100758.56;;;8.86;93.79
73101;BME280;61288;53.446;-2.266;2023-04-28T08:17:53;100756.59;;;8.94;94.22
73101;BME280;61288;53.446;-2.266;2023-04-28T08:20:19;100765.09;;;8.98;93.26
73101;BME280;61288;53.446;-2.266;2023-04-28T08:22:45;100768.31;;;9.04;92.77
73101;BME280;61288;53.446;-2.266;2023-04-28T08:25:11;100770.59;;;9.14;93.00
73101;BME280;61288;53.446;-2.266;2023-04-28T08:27:36;100772.19;;;9.18;92.01
73101;BME280;61288;53.446;-2.266;2023-04-28T08:30:07;100772.94;;;9.21;91.91
73101;BME280;61288;53.446;-2.266;2023-04-28T08:32:33;100772.75;;;9.26;90.92
73101;BME280;61288;53.446;-2.266;2023-04-28T08:34:59;100770.09;;;9.29;91.53
73101;BME280;61288;53.446;-2.266;2023-04-28T08:37:25;100774.19;;;9.35;90.85
73101;BME280;61288;53.446;-2.266;2023-04-28T08:39:51;100778.34;;;9.39;90.88
73101;BME280;61288;53.446;-2.266;2023-04-28T08:42:28;100790.28;;;9.43;90.51
73101;BME280;61288;53.446;-2.266;2023-04-28T08:44:55;100791.91;;;9.47;90.14
73101;BME280;61288;53.446;-2.266;2023-04-28T08:47:28;100791.72;;;9.52;90.67
73101;BME280;61288;53.446;-2.266;2023-04-28T08:50:06;100794.31;;;9.52;90.37
73101;BME280;61288;53.446;-2.266;2023-04-28T08:52:33;100793.50;;;9.50;89.80
73101;BME280;61288;53.446;-2.266;2023-04-28T08:55:00;100800.44;;;9.49;89.06
73101;BME280;61288;53.446;-2.266;2023-04-28T08:57:32;100803.72;;;9.54;89.68
73101;BME280;61288;53.446;-2.266;2023-04-28T09:00:00;100800.94;;;9.59;89.36
73101;BME280;61288;53.446;-2.266;2023-04-28T09:02:25;100803.66;;;9.56;88.81
73101;BME280;61288;53.446;-2.266;2023-04-28T09:04:51;100810.25;;;9.65;89.54
73101;BME280;61288;53.446;-2.266;2023-04-28T09:07:16;100807.63;;;9.66;90.49
73101;BME280;61288;53.446;-2.266;2023-04-28T09:09:42;100817.13;;;9.66;90.17
73101;BME280;61288;53.446;-2.266;2023-04-28T09:12:09;100820.44;;;9.70;89.77
73101;BME280;61288;53.446;-2.266;2023-04-28T09:14:37;100825.41;;;9.76;89.91
73101;BME280;61288;53.446;-2.266;2023-04-28T09:17:12;100833.97;;;9.78;90.78
73101;BME280;61288;53.446;-2.266;2023-04-28T09:19:39;100836.50;;;9.79;90.59
73101;BME280;61288;53.446;-2.266;2023-04-28T09:22:07;100837.28;;;9.81;89.40
73101;BME280;61288;53.446;-2.266;2023-04-28T09:24:38;100834.84;;;9.77;90.16
73101;BME280;61288;53.446;-2.266;2023-04-28T09:27:08;100845.16;;;9.78;89.79
73101;BME280;61288;53.446;-2.266;2023-04-28T09:29:51;100846.22;;;9.73;90.56
73101;BME280;61288;53.446;-2.266;2023-04-28T09:32:18;100841.75;;;9.76;90.61
73101;BME280;61288;53.446;-2.266;2023-04-28T09:34:46;100846.94;;;9.76;89.50
73101;BME280;61288;53.446;-2.266;2023-04-28T09:37:20;100856.47;;;9.76;90.30
73101;BME280;61288;53.446;-2.266;2023-04-28T09:39:48;100853.78;;;9.77;90.07
73101;BME280;61288;53.446;-2.266;2023-04-28T09:45:03;100857.25;;;9.78;90.75
73101;BME280;61288;53.446;-2.266;2023-04-28T09:47:30;100859.88;;;9.76;90.79
73101;BME280;61288;53.446;-2.266;2023-04-28T09:50:01;100860.84;;;9.74;90.54
73101;BME280;61288;53.446;-2.266;2023-04-28T09:52:27;100870.41;;;9.72;89.97
73101;BME280;61288;53.446;-2.266;2023-04-28T09:54:55;100869.59;;;9.70;90.44
73101;BME280;61288;53.446;-2.266;2023-04-28T09:57:21;100871.31;;;9.71;90.06
73101;BME280;61288;53.446;-2.266;2023-04-28T09:59:51;100871.91;;;9.77;90.54
73101;BME280;61288;53.446;-2.266;2023-04-28T10:02:19;100884.97;;;9.74;90.53
73101;BME280;61288;53.446;-2.266;2023-04-28T10:04:47;100885.72;;;9.78;90.89
73101;BME280;61288;53.446;-2.266;2023-04-28T10:07:14;100887.19;;;9.85;90.51
73101;BME280;61288;53.446;-2.266;2023-04-28T10:09:44;100895.00;;;9.83;90.25
73101;BME280;61288;53.446;-2.266;2023-04-28T10:12:22;100895.13;;;9.80;90.49
73101;BME280;61288;53.446;-2.266;2023-04-28T10:14:50;100899.41;;;9.81;90.25
73101;BME280;61288;53.446;-2.266;2023-04-28T10:17:19;100902.81;;;9.82;90.33
73101;BME280;61288;53.446;-2.266;2023-04-28T10:19:46;100903.78;;;9.79;90.11
73101;BME280;61288;53.446;-2.266;2023-04-28T10:25:17;100910.78;;;9.76;90.50
73101;BME280;61288;53.446;-2.266;2023-04-28T10:27:47;100910.69;;;9.79;90.49
73101;BME280;61288;53.446;-2.266;2023-04-28T10:30:22;100918.31;;;9.83;90.36
73101;BME280;61288;53.446;-2.266;2023-04-28T10:35:41;100923.31;;;9.88;90.35
73101;BME280;61288;53.446;-2.266;2023-04-28T10:38:14;100929.16;;;9.93;90.46
73101;BME280;61288;53.446;-2.266;2023-04-28T10:40:41;100931.69;;;9.96;90.53
73101;BME280;61288;53.446;-2.266;2023-04-28T10:43:11;100929.91;;;9.97;89.65
73101;BME280;61288;53.446;-2.266;2023-04-28T10:48:22;100940.28;;;9.97;89.83
73101;BME280;61288;53.446;-2.266;2023-04-28T10:56:10;100948.72;;;10.02;88.95
73101;BME280;61288;53.446;-2.266;2023-04-28T10:58:37;100956.34;;;10.07;88.82
73101;BME280;61288;53.446;-2.266;2023-04-28T11:03:49;100954.34;;;10.15;88.23
73101;BME280;61288;53.446;-2.266;2023-04-28T11:06:31;100954.41;;;10.14;88.09
73101;BME280;61288;53.446;-2.266;2023-04-28T11:08:59;100972.47;;;10.15;87.62
73101;BME280;61288;53.446;-2.266;2023-04-28T11:11:29;100967.25;;;10.17;87.63
73101;BME280;61288;53.446;-2.266;2023-04-28T11:17:02;100965.09;;;10.28;87.42
73101;BME280;61288;53.446;-2.266;2023-04-28T11:19:39;100966.00;;;10.27;86.79
73101;BME280;61288;53.446;-2.266;2023-04-28T11:24:38;100967.66;;;10.55;87.36
73101;BME280;61288;53.446;-2.266;2023-04-28T11:27:03;100967.31;;;10.88;86.99
73101;BME280;61288;53.446;-2.266;2023-04-28T11:29:35;100972.91;;;11.23;86.23
73101;BME280;61288;53.446;-2.266;2023-04-28T11:32:03;100975.25;;;11.52;84.80
73101;BME280;61288;53.446;-2.266;2023-04-28T11:34:29;100973.38;;;11.76;83.48
73101;BME280;61288;53.446;-2.266;2023-04-28T11:36:55;100984.84;;;11.93;82.30
73101;BME280;61288;53.446;-2.266;2023-04-28T11:39:30;100994.13;;;11.98;80.96
73101;BME280;61288;53.446;-2.266;2023-04-28T11:41:58;100987.38;;;11.94;79.64
73101;BME280;61288;53.446;-2.266;2023-04-28T11:44:26;100989.75;;;12.01;80.23
73101;BME280;61288;53.446;-2.266;2023-04-28T11:46:53;100993.31;;;12.19;80.24
73101;BME280;61288;53.446;-2.266;2023-04-28T11:49:24;100993.66;;;12.32;80.08
73101;BME280;61288;53.446;-2.266;2023-04-28T11:51:51;100998.56;;;12.38;79.39
73101;BME280;61288;53.446;-2.266;2023-04-28T11:54:26;101001.31;;;12.35;78.01
73101;BME280;61288;53.446;-2.266;2023-04-28T11:56:55;101015.34;;;12.31;77.47
73101;BME280;61288;53.446;-2.266;2023-04-28T11:59:25;101014.16;;;12.17;78.15
73101;BME280;61288;53.446;-2.266;2023-04-28T12:02:00;101018.88;;;12.07;78.27
73101;BME280;61288;53.446;-2.266;2023-04-28T12:04:40;101021.06;;;11.96;79.00
73101;BME280;61288;53.446;-2.266;2023-04-28T12:09:45;101034.25;;;11.69;78.36
73101;BME280;61288;53.446;-2.266;2023-04-28T12:12:14;101046.69;;;11.61;79.56
73101;BME280;61288;53.446;-2.266;2023-04-28T12:15:19;101054.91;;;11.50;80.00
73101;BME280;61288;53.446;-2.266;2023-04-28T12:17:45;101052.59;;;11.42;80.32
73101;BME280;61288;53.446;-2.266;2023-04-28T12:20:32;101059.00;;;11.33;80.68
73101;BME280;61288;53.446;-2.266;2023-04-28T12:22:57;101053.97;;;11.29;81.22
73101;BME280;61288;53.446;-2.266;2023-04-28T12:25:23;101059.13;;;11.30;81.81
73101;BME280;61288;53.446;-2.266;2023-04-28T12:28:02;101059.91;;;11.32;81.79
73101;BME280;61288;53.446;-2.266;2023-04-28T12:30:33;101059.81;;;11.34;81.48
73101;BME280;61288;53.446;-2.266;2023-04-28T12:32:59;101072.28;;;11.48;81.18
73101;BME280;61288;53.446;-2.266;2023-04-28T12:35:27;101075.91;;;11.66;80.74
73101;BME280;61288;53.446;-2.266;2023-04-28T12:37:54;101074.88;;;11.70;79.99
73101;BME280;61288;53.446;-2.266;2023-04-28T12:40:23;101073.38;;;11.87;79.92
73101;BME280;61288;53.446;-2.266;2023-04-28T12:42:49;101082.66;;;11.92;78.91
73101;BME280;61288;53.446;-2.266;2023-04-28T12:45:15;101078.56;;;11.87;78.65
73101;BME280;61288;53.446;-2.266;2023-04-28T12:47:40;101086.75;;;11.77;79.46
73101;BME280;61288;53.446;-2.266;2023-04-28T12:50:06;101087.16;;;11.66;79.57
73101;BME280;61288;53.446;-2.266;2023-04-28T12:52:32;101088.28;;;11.59;80.00
73101;BME280;61288;53.446;-2.266;2023-04-28T12:54:59;101093.81;;;11.50;80.28
73101;BME280;61288;53.446;-2.266;2023-04-28T12:57:25;101092.53;;;11.38;79.99
73101;BME280;61288;53.446;-2.266;2023-04-28T12:59:50;101101.47;;;11.31;80.71
73101;BME280;61288;53.446;-2.266;2023-04-28T13:02:17;101100.13;;;11.20;80.85
73101;BME280;61288;53.446;-2.266;2023-04-28T13:04:43;101098.66;;;11.13;81.46
73101;BME280;61288;53.446;-2.266;2023-04-28T13:07:14;101104.91;;;11.07;81.68
73101;BME280;61288;53.446;-2.266;2023-04-28T13:09:41;101105.06;;;11.03;82.11
73101;BME280;61288;53.446;-2.266;2023-04-28T13:12:08;101116.41;;;11.00;82.73
73101;BME280;61288;53.446;-2.266;2023-04-28T13:14:33;101115.50;;;11.01;83.26